sensor_id;sensor_type;location;lat;lon;timestamp;pressure;altitude;pressure_sealevel;temperature
20103;BMP180;10210;52.284;9.892;2023-07-31T00:01:08;100011.00;;;22.70
20103;BMP180;10210;52.284;9.892;2023-07-31T00:03:33;100019.00;;;22.70
20103;BMP180;10210;52.284;9.892;2023-07-31T00:05:59;100015.00;;;22.70
20103;BMP180;10210;52.284;9.892;2023-07-31T00:08:25;100005.00;;;22.70
20103;BMP180;10210;52.284;9.892;2023-07-31T00:10:53;100004.00;;;22.70
20103;BMP180;10210;52.284;9.892;2023-07-31T00:13:19;99993.00;;;22.70
20103;BMP180;10210;52.284;9.892;2023-07-31T00:15:45;99990.00;;;22.70
20103;BMP180;10210;52.284;9.892;2023-07-31T00:18:10;99989.00;;;22.70
20103;BMP180;10210;52.284;9.892;2023-07-31T00:20:36;99987.00;;;22.70
20103;BMP180;10210;52.284;9.892;2023-07-31T00:23:02;99985.00;;;22.60
20103;BMP180;10210;52.284;9.892;2023-07-31T00:25:27;99984.00;;;22.60
20103;BMP180;10210;52.284;9.892;2023-07-31T00:27:53;99980.00;;;22.60
20103;BMP180;10210;52.284;9.892;2023-07-31T00:30:18;99974.00;;;22.60
20103;BMP180;10210;52.284;9.892;2023-07-31T00:32:44;99980.00;;;22.60
20103;BMP180;10210;52.284;9.892;2023-07-31T00:35:10;99970.00;;;22.60
20103;BMP180;10210;52.284;9.892;2023-07-31T00:37:35;99973.00;;;22.60
20103;BMP180;10210;52.284;9.892;2023-07-31T00:40:01;99970.00;;;22.60
20103;BMP180;10210;52.284;9.892;2023-07-31T00:42:29;99976.00;;;22.50
20103;BMP180;10210;52.284;9.892;2023-07-31T00:44:54;99969.00;;;22.50
20103;BMP180;10210;52.284;9.892;2023-07-31T00:47:20;99967.00;;;22.50
20103;BMP180;10210;52.284;9.892;2023-07-31T00:49:46;99970.00;;;22.50
20103;BMP180;10210;52.284;9.892;2023-07-31T00:52:12;99966.00;;;22.40
20103;BMP180;10210;52.284;9.892;2023-07-31T00:54:39;99958.00;;;22.40
20103;BMP180;10210;52.284;9.892;2023-07-31T00:57:05;99950.00;;;22.40
20103;BMP180;10210;52.284;9.892;2023-07-31T00:59:33;99942.00;;;22.40
20103;BMP180;10210;52.284;9.892;2023-07-31T01:01:58;99958.00;;;22.30
20103;BMP180;10210;52.284;9.892;2023-07-31T01:04:24;99954.00;;;22.30
20103;BMP180;10210;52.284;9.892;2023-07-31T01:12:40;99933.00;;;22.10
20103;BMP180;10210;52.284;9.892;2023-07-31T01:15:08;99933.00;;;22.10
20103;BMP180;10210;52.284;9.892;2023-07-31T01:17:37;99913.00;;;22.00
20103;BMP180;10210;52.284;9.892;2023-07-31T01:20:10;99915.00;;;22.00
20103;BMP180;10210;52.284;9.892;2023-07-31T01:25:56;99908.00;;;21.80
20103;BMP180;10210;52.284;9.892;2023-07-31T01:28:55;99905.00;;;21.80
20103;BMP180;10210;52.284;9.892;2023-07-31T01:31:24;99897.00;;;21.80
20103;BMP180;10210;52.284;9.892;2023-07-31T01:33:53;99906.00;;;21.80
20103;BMP180;10210;52.284;9.892;2023-07-31T01:36:20;99900.00;;;21.80
20103;BMP180;10210;52.284;9.892;2023-07-31T01:38:46;99894.00;;;21.70
20103;BMP180;10210;52.284;9.892;2023-07-31T01:41:11;99894.00;;;21.70
20103;BMP180;10210;52.284;9.892;2023-07-31T01:43:37;99890.00;;;21.70
20103;BMP180;10210;52.284;9.892;2023-07-31T01:46:03;99891.00;;;21.60
20103;BMP180;10210;52.284;9.892;2023-07-31T01:48:28;99896.00;;;21.60
20103;BMP180;10210;52.284;9.892;2023-07-31T01:50:54;99891.00;;;21.60
20103;BMP180;10210;52.284;9.892;2023-07-31T01:53:20;99893.00;;;21.60
20103;BMP180;10210;52.284;9.892;2023-07-31T01:55:45;99888.00;;;21.60
20103;BMP180;10210;52.284;9.892;2023-07-31T01:58:11;99885.00;;;21.60
20103;BMP180;10210;52.284;9.892;2023-07-31T02:00:37;99876.00;;;21.60
20103;BMP180;10210;52.284;9.892;2023-07-31T02:03:02;99875.00;;;21.60
20103;BMP180;10210;52.284;9.892;2023-07-31T02:05:28;99870.00;;;21.60
20103;BMP180;10210;52.284;9.892;2023-07-31T02:07:53;99869.00;;;21.60
20103;BMP180;10210;52.284;9.892;2023-07-31T02:10:19;99875.00;;;21.60
20103;BMP180;10210;52.284;9.892;2023-07-31T02:12:45;99865.00;;;21.60
20103;BMP180;10210;52.284;9.892;2023-07-31T02:15:10;99869.00;;;21.60
20103;BMP180;10210;52.284;9.892;2023-07-31T02:17:36;99859.00;;;21.60
20103;BMP180;10210;52.284;9.892;2023-07-31T02:20:02;99859.00;;;21.60
20103;BMP180;10210;52.284;9.892;2023-07-31T02:22:28;99854.00;;;21.60
20103;BMP180;10210;52.284;9.892;2023-07-31T02:24:53;99858.00;;;21.60
20103;BMP180;10210;52.284;9.892;2023-07-31T02:27:19;99855.00;;;21.60
20103;BMP180;10210;52.284;9.892;2023-07-31T02:29:45;99855.00;;;21.60
20103;BMP180;10210;52.284;9.892;2023-07-31T02:32:10;99843.00;;;21.60
20103;BMP180;10210;52.284;9.892;2023-07-31T02:34:36;99858.00;;;21.60
20103;BMP180;10210;52.284;9.892;2023-07-31T02:37:02;99844.00;;;21.60
20103;BMP180;10210;52.284;9.892;2023-07-31T02:39:27;99854.00;;;21.60
20103;BMP180;10210;52.284;9.892;2023-07-31T02:41:53;99837.00;;;21.60
20103;BMP180;10210;52.284;9.892;2023-07-31T02:44:18;99842.00;;;21.50
20103;BMP180;10210;52.284;9.892;2023-07-31T02:46:45;99844.00;;;21.50
20103;BMP180;10210;52.284;9.892;2023-07-31T02:49:11;99843.00;;;21.50
20103;BMP180;10210;52.284;9.892;2023-07-31T02:51:37;99848.00;;;21.50
20103;BMP180;10210;52.284;9.892;2023-07-31T02:54:02;99838.00;;;21.50
20103;BMP180;10210;52.284;9.892;2023-07-31T02:56:28;99834.00;;;21.50
20103;BMP180;10210;52.284;9.892;2023-07-31T02:58:54;99835.00;;;21.50
20103;BMP180;10210;52.284;9.892;2023-07-31T03:01:19;99832.00;;;21.50
20103;BMP180;10210;52.284;9.892;2023-07-31T03:03:45;99834.00;;;21.60
20103;BMP180;10210;52.284;9.892;2023-07-31T03:06:11;99842.00;;;21.50
20103;BMP180;10210;52.284;9.892;2023-07-31T03:08:36;99841.00;;;21.50
20103;BMP180;10210;52.284;9.892;2023-07-31T03:11:02;99832.00;;;21.50
20103;BMP180;10210;52.284;9.892;2023-07-31T03:13:27;99833.00;;;21.50
20103;BMP180;10210;52.284;9.892;2023-07-31T03:15:53;99831.00;;;21.50
20103;BMP180;10210;52.284;9.892;2023-07-31T03:18:19;99838.00;;;21.60
20103;BMP180;10210;52.284;9.892;2023-07-31T03:20:44;99841.00;;;21.60
20103;BMP180;10210;52.284;9.892;2023-07-31T03:23:10;99835.00;;;21.60
20103;BMP180;10210;52.284;9.892;2023-07-31T03:25:37;99841.00;;;21.60
20103;BMP180;10210;52.284;9.892;2023-07-31T03:28:02;99849.00;;;21.60
20103;BMP180;10210;52.284;9.892;2023-07-31T03:30:28;99840.00;;;21.50
20103;BMP180;10210;52.284;9.892;2023-07-31T03:32:54;99847.00;;;21.50
20103;BMP180;10210;52.284;9.892;2023-07-31T03:35:19;99854.00;;;21.50
20103;BMP180;10210;52.284;9.892;2023-07-31T03:37:45;99854.00;;;21.50
20103;BMP180;10210;52.284;9.892;2023-07-31T03:40:11;99851.00;;;21.50
20103;BMP180;10210;52.284;9.892;2023-07-31T03:42:37;99847.00;;;21.50
20103;BMP180;10210;52.284;9.892;2023-07-31T03:45:03;99851.00;;;21.40
20103;BMP180;10210;52.284;9.892;2023-07-31T03:47:29;99848.00;;;21.40
20103;BMP180;10210;52.284;9.892;2023-07-31T03:49:54;99848.00;;;21.40
20103;BMP180;10210;52.284;9.892;2023-07-31T03:52:20;99846.00;;;21.40
20103;BMP180;10210;52.284;9.892;2023-07-31T03:54:45;99851.00;;;21.30
20103;BMP180;10210;52.284;9.892;2023-07-31T03:57:11;99842.00;;;21.30
20103;BMP180;10210;52.284;9.892;2023-07-31T03:59:37;99839.00;;;21.30
20103;BMP180;10210;52.284;9.892;2023-07-31T04:02:06;99840.00;;;21.20
20103;BMP180;10210;52.284;9.892;2023-07-31T04:04:31;99837.00;;;21.20
20103;BMP180;10210;52.284;9.892;2023-07-31T04:06:57;99834.00;;;21.20
20103;BMP180;10210;52.284;9.892;2023-07-31T04:09:23;99829.00;;;21.20
20103;BMP180;10210;52.284;9.892;2023-07-31T04:11:48;99828.00;;;21.10
20103;BMP180;10210;52.284;9.892;2023-07-31T04:14:14;99822.00;;;21.10
20103;BMP180;10210;52.284;9.892;2023-07-31T04:16:40;99828.00;;;21.10
20103;BMP180;10210;52.284;9.892;2023-07-31T04:19:05;99825.00;;;21.10
20103;BMP180;10210;52.284;9.892;2023-07-31T04:21:31;99830.00;;;21.10
20103;BMP180;10210;52.284;9.892;2023-07-31T04:23:57;99822.00;;;21.10
20103;BMP180;10210;52.284;9.892;2023-07-31T04:26:23;99829.00;;;21.10
20103;BMP180;10210;52.284;9.892;2023-07-31T04:28:49;99822.00;;;21.10
20103;BMP180;10210;52.284;9.892;2023-07-31T04:31:15;99825.00;;;21.10
20103;BMP180;10210;52.284;9.892;2023-07-31T04:33:40;99820.00;;;21.00
20103;BMP180;10210;52.284;9.892;2023-07-31T04:36:06;99826.00;;;21.00
20103;BMP180;10210;52.284;9.892;2023-07-31T04:38:32;99824.00;;;21.00
20103;BMP180;10210;52.284;9.892;2023-07-31T04:40:57;99828.00;;;21.00
20103;BMP180;10210;52.284;9.892;2023-07-31T04:43:23;99817.00;;;21.00
20103;BMP180;10210;52.284;9.892;2023-07-31T04:45:49;99821.00;;;20.90
20103;BMP180;10210;52.284;9.892;2023-07-31T04:48:15;99817.00;;;20.90
20103;BMP180;10210;52.284;9.892;2023-07-31T04:50:41;99822.00;;;20.90
20103;BMP180;10210;52.284;9.892;2023-07-31T04:53:07;99817.00;;;20.90
20103;BMP180;10210;52.284;9.892;2023-07-31T04:55:33;99807.00;;;20.90
20103;BMP180;10210;52.284;9.892;2023-07-31T04:57:59;99813.00;;;20.90
20103;BMP180;10210;52.284;9.892;2023-07-31T05:00:25;99819.00;;;20.90
20103;BMP180;10210;52.284;9.892;2023-07-31T05:02:50;99810.00;;;20.90
20103;BMP180;10210;52.284;9.892;2023-07-31T05:05:16;99802.00;;;20.90
20103;BMP180;10210;52.284;9.892;2023-07-31T05:07:42;99802.00;;;20.90
20103;BMP180;10210;52.284;9.892;2023-07-31T05:10:08;99808.00;;;21.00
20103;BMP180;10210;52.284;9.892;2023-07-31T05:12:34;99795.00;;;21.00
20103;BMP180;10210;52.284;9.892;2023-07-31T05:15:00;99801.00;;;21.10
20103;BMP180;10210;52.284;9.892;2023-07-31T05:17:25;99796.00;;;21.10
20103;BMP180;10210;52.284;9.892;2023-07-31T05:19:51;99789.00;;;21.10
20103;BMP180;10210;52.284;9.892;2023-07-31T05:22:17;99792.00;;;21.10
20103;BMP180;10210;52.284;9.892;2023-07-31T05:24:42;99785.00;;;21.10
20103;BMP180;10210;52.284;9.892;2023-07-31T05:27:08;99777.00;;;21.10
20103;BMP180;10210;52.284;9.892;2023-07-31T05:29:35;99785.00;;;21.10
20103;BMP180;10210;52.284;9.892;2023-07-31T05:32:01;99781.00;;;21.10
20103;BMP180;10210;52.284;9.892;2023-07-31T05:34:27;99784.00;;;21.10
20103;BMP180;10210;52.284;9.892;2023-07-31T05:36:52;99783.00;;;21.10
20103;BMP180;10210;52.284;9.892;2023-07-31T05:39:18;99785.00;;;21.10
20103;BMP180;10210;52.284;9.892;2023-07-31T05:41:45;99786.00;;;21.00
20103;BMP180;10210;52.284;9.892;2023-07-31T05:44:11;99777.00;;;21.00
20103;BMP180;10210;52.284;9.892;2023-07-31T05:46:36;99772.00;;;21.00
20103;BMP180;10210;52.284;9.892;2023-07-31T05:49:02;99780.00;;;21.00
20103;BMP180;10210;52.284;9.892;2023-07-31T05:51:28;99782.00;;;21.00
20103;BMP180;10210;52.284;9.892;2023-07-31T05:53:54;99776.00;;;21.00
20103;BMP180;10210;52.284;9.892;2023-07-31T05:56:19;99776.00;;;21.00
20103;BMP180;10210;52.284;9.892;2023-07-31T05:58:46;99776.00;;;21.00
20103;BMP180;10210;52.284;9.892;2023-07-31T06:01:16;99767.00;;;21.00
20103;BMP180;10210;52.284;9.892;2023-07-31T06:03:42;99767.00;;;21.00
20103;BMP180;10210;52.284;9.892;2023-07-31T06:06:08;99777.00;;;21.10
20103;BMP180;10210;52.284;9.892;2023-07-31T06:08:34;99771.00;;;21.10
20103;BMP180;10210;52.284;9.892;2023-07-31T06:10:59;99765.00;;;21.00
20103;BMP180;10210;52.284;9.892;2023-07-31T06:13:25;99774.00;;;21.10
20103;BMP180;10210;52.284;9.892;2023-07-31T06:15:51;99767.00;;;21.10
20103;BMP180;10210;52.284;9.892;2023-07-31T06:18:16;99775.00;;;21.10
20103;BMP180;10210;52.284;9.892;2023-07-31T06:20:42;99771.00;;;21.10
20103;BMP180;10210;52.284;9.892;2023-07-31T06:23:08;99779.00;;;21.10
20103;BMP180;10210;52.284;9.892;2023-07-31T06:25:33;99770.00;;;21.10
20103;BMP180;10210;52.284;9.892;2023-07-31T06:27:59;99774.00;;;21.10
20103;BMP180;10210;52.284;9.892;2023-07-31T06:30:25;99769.00;;;21.10
20103;BMP180;10210;52.284;9.892;2023-07-31T06:32:50;99765.00;;;21.10
20103;BMP180;10210;52.284;9.892;2023-07-31T06:35:16;99768.00;;;21.10
20103;BMP180;10210;52.284;9.892;2023-07-31T06:37:42;99771.00;;;21.10
20103;BMP180;10210;52.284;9.892;2023-07-31T06:40:10;99778.00;;;21.10
20103;BMP180;10210;52.284;9.892;2023-07-31T06:42:36;99778.00;;;21.10
20103;BMP180;10210;52.284;9.892;2023-07-31T06:45:02;99769.00;;;21.10
20103;BMP180;10210;52.284;9.892;2023-07-31T06:47:28;99761.00;;;21.10
20103;BMP180;10210;52.284;9.892;2023-07-31T06:49:54;99767.00;;;21.10
20103;BMP180;10210;52.284;9.892;2023-07-31T06:52:19;99771.00;;;21.10
20103;BMP180;10210;52.284;9.892;2023-07-31T06:55:16;99776.00;;;21.00
20103;BMP180;10210;52.284;9.892;2023-07-31T06:57:45;99760.00;;;21.00
20103;BMP180;10210;52.284;9.892;2023-07-31T07:00:11;99764.00;;;21.00
20103;BMP180;10210;52.284;9.892;2023-07-31T07:02:37;99763.00;;;21.00
20103;BMP180;10210;52.284;9.892;2023-07-31T07:05:03;99764.00;;;21.00
20103;BMP180;10210;52.284;9.892;2023-07-31T07:07:28;99772.00;;;21.00
20103;BMP180;10210;52.284;9.892;2023-07-31T07:09:54;99767.00;;;21.00
20103;BMP180;10210;52.284;9.892;2023-07-31T07:12:20;99754.00;;;21.00
20103;BMP180;10210;52.284;9.892;2023-07-31T07:14:45;99760.00;;;21.00
20103;BMP180;10210;52.284;9.892;2023-07-31T07:17:14;99754.00;;;21.00
20103;BMP180;10210;52.284;9.892;2023-07-31T07:19:43;99757.00;;;21.00
20103;BMP180;10210;52.284;9.892;2023-07-31T07:22:09;99748.00;;;21.00
20103;BMP180;10210;52.284;9.892;2023-07-31T07:24:35;99752.00;;;21.00
20103;BMP180;10210;52.284;9.892;2023-07-31T07:27:01;99760.00;;;21.10
20103;BMP180;10210;52.284;9.892;2023-07-31T07:29:26;99758.00;;;21.10
20103;BMP180;10210;52.284;9.892;2023-07-31T07:31:52;99756.00;;;21.10
20103;BMP180;10210;52.284;9.892;2023-07-31T07:34:18;99751.00;;;21.10
20103;BMP180;10210;52.284;9.892;2023-07-31T07:36:43;99760.00;;;21.10
20103;BMP180;10210;52.284;9.892;2023-07-31T07:39:11;99761.00;;;21.10
20103;BMP180;10210;52.284;9.892;2023-07-31T07:41:36;99756.00;;;21.20
20103;BMP180;10210;52.284;9.892;2023-07-31T07:44:02;99754.00;;;21.20
20103;BMP180;10210;52.284;9.892;2023-07-31T07:46:28;99758.00;;;21.30
20103;BMP180;10210;52.284;9.892;2023-07-31T07:48:53;99756.00;;;21.30
20103;BMP180;10210;52.284;9.892;2023-07-31T07:51:19;99759.00;;;21.40
20103;BMP180;10210;52.284;9.892;2023-07-31T07:53:45;99750.00;;;21.40
20103;BMP180;10210;52.284;9.892;2023-07-31T07:56:10;99749.00;;;21.50
20103;BMP180;10210;52.284;9.892;2023-07-31T07:58:36;99757.00;;;21.50
20103;BMP180;10210;52.284;9.892;2023-07-31T08:01:02;99737.00;;;21.50
20103;BMP180;10210;52.284;9.892;2023-07-31T08:03:27;99747.00;;;21.60
20103;BMP180;10210;52.284;9.892;2023-07-31T08:05:58;99746.00;;;21.60
20103;BMP180;10210;52.284;9.892;2023-07-31T08:08:24;99742.00;;;21.70
20103;BMP180;10210;52.284;9.892;2023-07-31T08:10:50;99750.00;;;21.70
20103;BMP180;10210;52.284;9.892;2023-07-31T08:13:16;99751.00;;;21.70
20103;BMP180;10210;52.284;9.892;2023-07-31T08:15:42;99752.00;;;21.70
20103;BMP180;10210;52.284;9.892;2023-07-31T08:18:09;99752.00;;;21.80
20103;BMP180;10210;52.284;9.892;2023-07-31T08:20:34;99760.00;;;21.80
20103;BMP180;10210;52.284;9.892;2023-07-31T08:23:00;99758.00;;;21.80
20103;BMP180;10210;52.284;9.892;2023-07-31T08:25:26;99758.00;;;21.90
20103;BMP180;10210;52.284;9.892;2023-07-31T08:27:51;99757.00;;;21.90
20103;BMP180;10210;52.284;9.892;2023-07-31T08:30:19;99756.00;;;21.90
20103;BMP180;10210;52.284;9.892;2023-07-31T08:32:45;99753.00;;;22.00
20103;BMP180;10210;52.284;9.892;2023-07-31T08:35:10;99757.00;;;21.90
20103;BMP180;10210;52.284;9.892;2023-07-31T08:37:37;99761.00;;;22.00
20103;BMP180;10210;52.284;9.892;2023-07-31T08:40:05;99761.00;;;22.00
20103;BMP180;10210;52.284;9.892;2023-07-31T08:42:31;99761.00;;;22.00
20103;BMP180;10210;52.284;9.892;2023-07-31T08:44:59;99749.00;;;22.00
20103;BMP180;10210;52.284;9.892;2023-07-31T08:47:26;99756.00;;;21.90
20103;BMP180;10210;52.284;9.892;2023-07-31T08:49:54;99759.00;;;21.90
20103;BMP180;10210;52.284;9.892;2023-07-31T08:52:20;99761.00;;;21.90
20103;BMP180;10210;52.284;9.892;2023-07-31T08:54:45;99747.00;;;21.90
20103;BMP180;10210;52.284;9.892;2023-07-31T08:57:12;99745.00;;;21.80
20103;BMP180;10210;52.284;9.892;2023-07-31T08:59:41;99741.00;;;21.80
20103;BMP180;10210;52.284;9.892;2023-07-31T09:02:08;99745.00;;;21.80
20103;BMP180;10210;52.284;9.892;2023-07-31T09:04:34;99738.00;;;21.80
20103;BMP180;10210;52.284;9.892;2023-07-31T09:07:02;99728.00;;;21.80
20103;BMP180;10210;52.284;9.892;2023-07-31T09:09:30;99738.00;;;21.80
20103;BMP180;10210;52.284;9.892;2023-07-31T09:11:58;99728.00;;;21.80
20103;BMP180;10210;52.284;9.892;2023-07-31T09:14:25;99727.00;;;21.80
20103;BMP180;10210;52.284;9.892;2023-07-31T09:16:56;99728.00;;;21.80
20103;BMP180;10210;52.284;9.892;2023-07-31T09:19:40;99717.00;;;21.70
20103;BMP180;10210;52.284;9.892;2023-07-31T09:22:06;99721.00;;;21.80
20103;BMP180;10210;52.284;9.892;2023-07-31T09:24:34;99714.00;;;21.80
20103;BMP180;10210;52.284;9.892;2023-07-31T09:27:01;99720.00;;;21.90
20103;BMP180;10210;52.284;9.892;2023-07-31T09:29:28;99722.00;;;21.90
20103;BMP180;10210;52.284;9.892;2023-07-31T09:31:55;99720.00;;;21.90
20103;BMP180;10210;52.284;9.892;2023-07-31T09:34:30;99706.00;;;21.90
20103;BMP180;10210;52.284;9.892;2023-07-31T09:37:02;99715.00;;;21.90
20103;BMP180;10210;52.284;9.892;2023-07-31T09:39:29;99703.00;;;21.90
20103;BMP180;10210;52.284;9.892;2023-07-31T09:41:56;99709.00;;;22.00
20103;BMP180;10210;52.284;9.892;2023-07-31T09:44:38;99703.00;;;22.00
20103;BMP180;10210;52.284;9.892;2023-07-31T09:47:05;99698.00;;;22.00
20103;BMP180;10210;52.284;9.892;2023-07-31T09:49:31;99696.00;;;22.00
20103;BMP180;10210;52.284;9.892;2023-07-31T09:51:57;99693.00;;;22.10
20103;BMP180;10210;52.284;9.892;2023-07-31T09:54:22;99699.00;;;22.10
20103;BMP180;10210;52.284;9.892;2023-07-31T09:56:49;99697.00;;;22.10
20103;BMP180;10210;52.284;9.892;2023-07-31T09:59:18;99687.00;;;22.10
20103;BMP180;10210;52.284;9.892;2023-07-31T10:01:46;99689.00;;;22.10
20103;BMP180;10210;52.284;9.892;2023-07-31T10:04:14;99681.00;;;22.20
20103;BMP180;10210;52.284;9.892;2023-07-31T10:06:44;99683.00;;;22.10
20103;BMP180;10210;52.284;9.892;2023-07-31T10:09:15;99685.00;;;22.10
20103;BMP180;10210;52.284;9.892;2023-07-31T10:11:47;99676.00;;;22.20
20103;BMP180;10210;52.284;9.892;2023-07-31T10:14:20;99683.00;;;22.20
20103;BMP180;10210;52.284;9.892;2023-07-31T10:16:46;99682.00;;;22.20
20103;BMP180;10210;52.284;9.892;2023-07-31T10:19:12;99676.00;;;22.20
20103;BMP180;10210;52.284;9.892;2023-07-31T10:21:38;99678.00;;;22.30
20103;BMP180;10210;52.284;9.892;2023-07-31T10:24:05;99680.00;;;22.30
20103;BMP180;10210;52.284;9.892;2023-07-31T10:26:34;99684.00;;;22.30
20103;BMP180;10210;52.284;9.892;2023-07-31T10:29:01;99679.00;;;22.40
20103;BMP180;10210;52.284;9.892;2023-07-31T10:31:28;99675.00;;;22.40
20103;BMP180;10210;52.284;9.892;2023-07-31T10:33:57;99673.00;;;22.50
20103;BMP180;10210;52.284;9.892;2023-07-31T10:36:24;99670.00;;;22.60
20103;BMP180;10210;52.284;9.892;2023-07-31T10:38:51;99674.00;;;22.60
20103;BMP180;10210;52.284;9.892;2023-07-31T10:41:17;99668.00;;;22.70
20103;BMP180;10210;52.284;9.892;2023-07-31T10:43:45;99667.00;;;22.70
20103;BMP180;10210;52.284;9.892;2023-07-31T10:46:13;99661.00;;;22.70
20103;BMP180;10210;52.284;9.892;2023-07-31T10:48:41;99660.00;;;22.80
20103;BMP180;10210;52.284;9.892;2023-07-31T10:51:12;99652.00;;;22.80
20103;BMP180;10210;52.284;9.892;2023-07-31T10:53:39;99651.00;;;22.80
20103;BMP180;10210;52.284;9.892;2023-07-31T10:56:10;99653.00;;;22.80
20103;BMP180;10210;52.284;9.892;2023-07-31T10:58:44;99649.00;;;22.80
20103;BMP180;10210;52.284;9.892;2023-07-31T11:01:11;99644.00;;;22.80
20103;BMP180;10210;52.284;9.892;2023-07-31T11:03:50;99645.00;;;22.90
20103;BMP180;10210;52.284;9.892;2023-07-31T11:06:18;99640.00;;;22.90
20103;BMP180;10210;52.284;9.892;2023-07-31T11:08:49;99631.00;;;23.00
20103;BMP180;10210;52.284;9.892;2023-07-31T11:11:18;99628.00;;;23.00
20103;BMP180;10210;52.284;9.892;2023-07-31T11:13:54;99645.00;;;23.00
20103;BMP180;10210;52.284;9.892;2023-07-31T11:16:23;99615.00;;;23.10
20103;BMP180;10210;52.284;9.892;2023-07-31T11:18:51;99624.00;;;23.10
20103;BMP180;10210;52.284;9.892;2023-07-31T11:21:22;99622.00;;;23.20
20103;BMP180;10210;52.284;9.892;2023-07-31T11:23:51;99629.00;;;23.20
20103;BMP180;10210;52.284;9.892;2023-07-31T11:26:19;99623.00;;;23.20
20103;BMP180;10210;52.284;9.892;2023-07-31T11:28:49;99619.00;;;23.20
20103;BMP180;10210;52.284;9.892;2023-07-31T11:31:15;99629.00;;;23.20
20103;BMP180;10210;52.284;9.892;2023-07-31T11:33:41;99632.00;;;23.20
20103;BMP180;10210;52.284;9.892;2023-07-31T11:36:19;99627.00;;;23.20
20103;BMP180;10210;52.284;9.892;2023-07-31T11:38:45;99626.00;;;23.20
20103;BMP180;10210;52.284;9.892;2023-07-31T11:41:16;99620.00;;;23.20
20103;BMP180;10210;52.284;9.892;2023-07-31T11:43:42;99623.00;;;23.20
20103;BMP180;10210;52.284;9.892;2023-07-31T11:46:07;99613.00;;;23.20
20103;BMP180;10210;52.284;9.892;2023-07-31T11:48:35;99619.00;;;23.20
20103;BMP180;10210;52.284;9.892;2023-07-31T11:51:04;99618.00;;;23.20
20103;BMP180;10210;52.284;9.892;2023-07-31T11:53:51;99612.00;;;23.20
20103;BMP180;10210;52.284;9.892;2023-07-31T11:56:20;99609.00;;;23.30
20103;BMP180;10210;52.284;9.892;2023-07-31T11:58:55;99605.00;;;23.30
20103;BMP180;10210;52.284;9.892;2023-07-31T12:01:23;99602.00;;;23.40
20103;BMP180;10210;52.284;9.892;2023-07-31T12:03:50;99600.00;;;23.40
20103;BMP180;10210;52.284;9.892;2023-07-31T12:06:16;99588.00;;;23.50
20103;BMP180;10210;52.284;9.892;2023-07-31T12:08:42;99585.00;;;23.50
20103;BMP180;10210;52.284;9.892;2023-07-31T12:11:09;99601.00;;;23.50
20103;BMP180;10210;52.284;9.892;2023-07-31T12:13:35;99605.00;;;23.60
20103;BMP180;10210;52.284;9.892;2023-07-31T12:16:03;99587.00;;;23.60
20103;BMP180;10210;52.284;9.892;2023-07-31T12:18:34;99592.00;;;23.60
20103;BMP180;10210;52.284;9.892;2023-07-31T12:21:04;99594.00;;;23.60
20103;BMP180;10210;52.284;9.892;2023-07-31T12:23:33;99593.00;;;23.60
20103;BMP180;10210;52.284;9.892;2023-07-31T12:26:11;99604.00;;;23.60
20103;BMP180;10210;52.284;9.892;2023-07-31T12:28:49;99586.00;;;23.60
20103;BMP180;10210;52.284;9.892;2023-07-31T12:31:21;99586.00;;;23.60
20103;BMP180;10210;52.284;9.892;2023-07-31T12:33:50;99583.00;;;23.60
20103;BMP180;10210;52.284;9.892;2023-07-31T12:36:18;99587.00;;;23.50
20103;BMP180;10210;52.284;9.892;2023-07-31T12:38:45;99587.00;;;23.50
20103;BMP180;10210;52.284;9.892;2023-07-31T12:41:12;99590.00;;;23.50
20103;BMP180;10210;52.284;9.892;2023-07-31T12:43:40;99587.00;;;23.50
20103;BMP180;10210;52.284;9.892;2023-07-31T12:46:07;99579.00;;;23.50
20103;BMP180;10210;52.284;9.892;2023-07-31T12:48:35;99599.00;;;23.40
20103;BMP180;10210;52.284;9.892;2023-07-31T12:51:01;99581.00;;;23.40
20103;BMP180;10210;52.284;9.892;2023-07-31T12:53:28;99593.00;;;23.50
20103;BMP180;10210;52.284;9.892;2023-07-31T12:55:55;99593.00;;;23.50
20103;BMP180;10210;52.284;9.892;2023-07-31T12:58:21;99571.00;;;23.50
20103;BMP180;10210;52.284;9.892;2023-07-31T13:00:46;99582.00;;;23.40
20103;BMP180;10210;52.284;9.892;2023-07-31T13:03:12;99568.00;;;23.40
20103;BMP180;10210;52.284;9.892;2023-07-31T13:05:38;99575.00;;;23.40
20103;BMP180;10210;52.284;9.892;2023-07-31T13:08:04;99566.00;;;23.50
20103;BMP180;10210;52.284;9.892;2023-07-31T13:10:29;99565.00;;;23.50
20103;BMP180;10210;52.284;9.892;2023-07-31T13:12:55;99567.00;;;23.60
20103;BMP180;10210;52.284;9.892;2023-07-31T13:15:23;99563.00;;;23.70
20103;BMP180;10210;52.284;9.892;2023-07-31T13:17:50;99564.00;;;23.70
20103;BMP180;10210;52.284;9.892;2023-07-31T13:20:16;99566.00;;;23.80
20103;BMP180;10210;52.284;9.892;2023-07-31T13:22:41;99565.00;;;23.80
20103;BMP180;10210;52.284;9.892;2023-07-31T13:25:08;99557.00;;;23.90
20103;BMP180;10210;52.284;9.892;2023-07-31T13:27:35;99566.00;;;23.90
20103;BMP180;10210;52.284;9.892;2023-07-31T13:30:01;99560.00;;;23.90
20103;BMP180;10210;52.284;9.892;2023-07-31T13:32:26;99560.00;;;23.90
20103;BMP180;10210;52.284;9.892;2023-07-31T13:34:52;99567.00;;;24.00
20103;BMP180;10210;52.284;9.892;2023-07-31T13:37:18;99565.00;;;24.00
20103;BMP180;10210;52.284;9.892;2023-07-31T13:39:44;99568.00;;;24.00
20103;BMP180;10210;52.284;9.892;2023-07-31T13:42:10;99553.00;;;24.00
20103;BMP180;10210;52.284;9.892;2023-07-31T13:44:41;99556.00;;;24.10
20103;BMP180;10210;52.284;9.892;2023-07-31T13:47:08;99554.00;;;24.10
20103;BMP180;10210;52.284;9.892;2023-07-31T13:49:36;99553.00;;;24.10
20103;BMP180;10210;52.284;9.892;2023-07-31T13:52:03;99560.00;;;24.10
20103;BMP180;10210;52.284;9.892;2023-07-31T13:54:29;99556.00;;;24.10
20103;BMP180;10210;52.284;9.892;2023-07-31T13:56:55;99548.00;;;24.10
20103;BMP180;10210;52.284;9.892;2023-07-31T13:59:21;99564.00;;;24.10
20103;BMP180;10210;52.284;9.892;2023-07-31T14:01:48;99552.00;;;24.10
20103;BMP180;10210;52.284;9.892;2023-07-31T14:04:15;99544.00;;;24.10
20103;BMP180;10210;52.284;9.892;2023-07-31T14:06:41;99545.00;;;24.10
20103;BMP180;10210;52.284;9.892;2023-07-31T14:09:07;99537.00;;;24.20
20103;BMP180;10210;52.284;9.892;2023-07-31T14:11:33;99539.00;;;24.20
20103;BMP180;10210;52.284;9.892;2023-07-31T14:13:59;99542.00;;;24.30
20103;BMP180;10210;52.284;9.892;2023-07-31T14:16:28;99551.00;;;24.30